Time;durP1;ratioP1;P1;durP2;ratioP2;P2;SDS_P1;SDS_P2;PMS_P1;PMS_P2;Temp;Humidity;BMP_temperature;BMP_pressure;BME280_temperature;BME280_humidity;BME280_pressure;Samples;Min_cycle;Max_cycle;Signal;HPM_P1;HPM_P2
2022/04/07 00:00:06;;;;;;;1.77;0.87;;;8.20;99.90;;;;;;5071517;28;21013;-68
2022/04/07 00:02:31;;;;;;;2.90;1.30;;;8.20;99.90;;;;;;5079938;28;20213;-65
2022/04/07 00:04:57;;;;;;;1.87;0.90;;;8.10;99.90;;;;;;5073191;28;21139;-66
2022/04/07 00:07:23;;;;;;;2.10;1.10;;;8.10;99.90;;;;;;5071348;28;20248;-66
2022/04/07 00:09:48;;;;;;;2.20;1.10;;;8.10;99.90;;;;;;5079661;28;20187;-66
2022/04/07 00:12:14;;;;;;;2.23;1.30;;;8.10;99.90;;;;;;5077940;28;20208;-66
2022/04/07 00:14:39;;;;;;;2.90;1.40;;;8.10;99.90;;;;;;5075159;28;20192;-66
2022/04/07 00:17:06;;;;;;;3.50;0.93;;;8.10;99.90;;;;;;5081167;28;20189;-66
2022/04/07 00:19:31;;;;;;;2.07;1.03;;;8.10;99.90;;;;;;5072859;28;20189;-69
2022/04/07 00:21:57;;;;;;;2.07;1.13;;;8.10;99.90;;;;;;5065804;28;20533;-67
2022/04/07 00:24:23;;;;;;;2.67;1.40;;;8.20;99.90;;;;;;5080383;28;20185;-66
2022/04/07 00:26:49;;;;;;;2.57;1.23;;;8.20;99.90;;;;;;5081561;28;20649;-66
2022/04/07 00:29:15;;;;;;;2.33;1.43;;;8.10;99.90;;;;;;5075272;28;20519;-65
2022/04/07 00:31:41;;;;;;;1.87;1.17;;;8.20;99.90;;;;;;5082765;28;20287;-66
2022/04/07 00:34:07;;;;;;;2.43;1.00;;;8.10;99.90;;;;;;5076741;28;20187;-66
2022/04/07 00:36:33;;;;;;;2.90;1.40;;;8.00;99.90;;;;;;5076075;28;20813;-66
2022/04/07 00:38:59;;;;;;;1.70;0.83;;;8.00;99.90;;;;;;5076830;28;20203;-66
2022/04/07 00:41:24;;;;;;;2.20;1.00;;;8.00;99.90;;;;;;5066769;28;20242;-65
2022/04/07 00:43:53;;;;;;;1.80;0.90;;;8.00;99.90;;;;;;5067924;28;20193;-66
2022/04/07 00:46:19;;;;;;;2.43;1.20;;;8.00;99.90;;;;;;5069171;28;20220;-65
2022/04/07 00:48:45;;;;;;;1.90;1.00;;;8.00;99.90;;;;;;5073549;28;20427;-65
2022/04/07 00:51:11;;;;;;;4.30;1.00;;;8.00;99.90;;;;;;5074222;28;20480;-66
2022/04/07 00:53:37;;;;;;;3.97;1.00;;;8.00;99.90;;;;;;5068454;28;20902;-66
2022/04/07 00:56:05;;;;;;;2.10;0.97;;;8.00;99.90;;;;;;5071014;28;20185;-65
2022/04/07 00:58:33;;;;;;;2.33;1.00;;;8.00;99.90;;;;;;5068579;28;20488;-65
2022/04/07 01:00:59;;;;;;;1.97;1.10;;;8.00;99.90;;;;;;5072595;28;20439;-64
2022/04/07 01:03:25;;;;;;;2.50;1.20;;;8.00;99.90;;;;;;5069549;28;20438;-66
2022/04/07 01:05:50;;;;;;;2.23;1.10;;;8.00;99.90;;;;;;5076594;28;20569;-66
2022/04/07 01:08:16;;;;;;;2.53;1.20;;;8.00;99.90;;;;;;5083998;28;21350;-65
2022/04/07 01:10:43;;;;;;;2.20;1.30;;;8.00;99.90;;;;;;5081642;28;20563;-66
2022/04/07 01:13:11;;;;;;;1.50;0.63;;;8.00;99.90;;;;;;5082114;28;20212;-65
2022/04/07 01:15:37;;;;;;;1.90;0.77;;;7.90;99.90;;;;;;5080846;28;20925;-64
2022/04/07 01:18:04;;;;;;;1.47;0.80;;;7.90;99.90;;;;;;5077205;28;20437;-66
2022/04/07 01:20:30;;;;;;;2.33;1.07;;;7.90;99.90;;;;;;5072632;28;20446;-66
2022/04/07 01:22:56;;;;;;;6.57;2.50;;;7.90;99.90;;;;;;5076291;28;20507;-65
2022/04/07 01:25:29;;;;;;;1.73;0.93;;;7.90;99.90;;;;;;5075293;28;20423;-65
2022/04/07 01:27:55;;;;;;;4.53;2.27;;;7.90;99.90;;;;;;5076186;28;20506;-65
2022/04/07 01:30:21;;;;;;;3.90;1.60;;;7.90;99.90;;;;;;5075091;28;20426;-68
2022/04/07 01:32:57;;;;;;;3.77;1.80;;;7.80;99.90;;;;;;5085570;28;20447;-67
2022/04/07 01:35:24;;;;;;;8.90;1.27;;;7.90;99.90;;;;;;5086048;28;20180;-68
2022/04/07 01:37:52;;;;;;;3.17;1.20;;;7.80;99.90;;;;;;5066735;28;20439;-68
2022/04/07 01:40:21;;;;;;;4.20;1.60;;;7.80;99.90;;;;;;5066398;28;20425;-66
2022/04/07 01:42:48;;;;;;;2.83;1.27;;;7.70;99.90;;;;;;5067747;28;20447;-65
2022/04/07 01:45:14;;;;;;;3.53;1.33;;;7.70;99.90;;;;;;5067731;28;20790;-64
2022/04/07 01:47:43;;;;;;;3.60;1.20;;;7.70;99.90;;;;;;5068930;28;20539;-65
2022/04/07 01:50:10;;;;;;;3.43;1.20;;;7.70;99.90;;;;;;5069160;28;20506;-64
2022/04/07 01:52:38;;;;;;;4.87;2.17;;;7.70;99.90;;;;;;5068677;28;20447;-66
2022/04/07 01:55:04;;;;;;;2.43;1.27;;;7.70;99.90;;;;;;5068728;28;20415;-66
2022/04/07 01:57:33;;;;;;;3.00;1.10;;;7.70;99.90;;;;;;5080805;28;20448;-66
2022/04/07 02:00:00;;;;;;;2.53;1.30;;;7.70;99.90;;;;;;5069640;28;20506;-65
2022/04/07 02:02:26;;;;;;;2.37;1.10;;;7.60;99.90;;;;;;5085130;28;20527;-66
2022/04/07 02:05:00;;;;;;;1.80;0.80;;;7.60;99.90;;;;;;5072850;28;20495;-65
2022/04/07 02:07:32;;;;;;;4.50;1.10;;;7.60;99.90;;;;;;5071556;28;20481;-64
2022/04/07 02:09:59;;;;;;;2.63;1.20;;;7.50;99.90;;;;;;5075564;28;20433;-65
2022/04/07 02:12:27;;;;;;;1.57;0.90;;;7.50;99.90;;;;;;5077698;28;20443;-64
2022/04/07 02:14:53;;;;;;;2.67;0.80;;;7.50;99.90;;;;;;5073888;28;20433;-65
2022/04/07 02:17:22;;;;;;;2.53;0.90;;;7.60;99.90;;;;;;5071849;28;20427;-65
2022/04/07 02:19:56;;;;;;;1.33;0.57;;;7.60;99.90;;;;;;5074138;28;20430;-64
2022/04/07 02:22:22;;;;;;;2.23;0.80;;;7.60;99.90;;;;;;5061864;28;20513;-65
2022/04/07 02:24:48;;;;;;;1.30;0.60;;;7.70;99.90;;;;;;5077022;28;20434;-64
2022/04/07 02:27:15;;;;;;;2.13;1.17;;;7.70;99.90;;;;;;5073024;28;20471;-65
2022/04/07 02:29:44;;;;;;;1.60;0.90;;;7.70;99.90;;;;;;5065066;28;20424;-65
2022/04/07 02:32:13;;;;;;;1.90;0.87;;;7.70;99.90;;;;;;5070674;28;20973;-66
2022/04/07 02:34:42;;;;;;;2.00;0.90;;;7.70;99.90;;;;;;5076589;28;20423;-66
2022/04/07 02:37:08;;;;;;;2.37;0.60;;;7.70;99.90;;;;;;5078008;28;20430;-64
2022/04/07 02:39:34;;;;;;;1.40;0.60;;;7.70;99.90;;;;;;5084582;28;20438;-68
2022/04/07 02:42:00;;;;;;;1.63;0.80;;;7.70;99.90;;;;;;5085270;28;20446;-67
2022/04/07 02:44:25;;;;;;;1.23;0.57;;;7.60;99.90;;;;;;5085414;28;20219;-65
2022/04/07 02:46:51;;;;;;;1.40;0.60;;;7.70;99.90;;;;;;5078247;28;20211;-66
2022/04/07 02:49:17;;;;;;;1.40;0.73;;;7.70;99.90;;;;;;5075332;28;20271;-66
2022/04/07 02:51:44;;;;;;;1.10;0.50;;;7.70;99.90;;;;;;5073268;28;20228;-65
2022/04/07 02:54:09;;;;;;;1.47;0.60;;;7.70;99.90;;;;;;5079445;28;20982;-65
2022/04/07 02:56:35;;;;;;;1.20;0.50;;;7.80;99.90;;;;;;5076017;28;20445;-65
2022/04/07 02:59:01;;;;;;;1.80;0.60;;;7.70;99.90;;;;;;5073903;28;20199;-65
2022/04/07 03:01:27;;;;;;;1.30;0.60;;;7.70;99.90;;;;;;5080660;28;20208;-65
2022/04/07 03:03:55;;;;;;;1.80;0.60;;;7.70;99.90;;;;;;5083721;28;20185;-64
2022/04/07 03:06:21;;;;;;;1.43;0.60;;;7.80;99.90;;;;;;5073915;28;20690;-66
2022/04/07 03:08:47;;;;;;;1.70;0.70;;;7.80;99.90;;;;;;5071610;28;20959;-65
2022/04/07 03:11:13;;;;;;;2.13;0.77;;;7.80;99.90;;;;;;5076836;28;20419;-66
2022/04/07 03:13:39;;;;;;;1.20;0.50;;;7.80;99.90;;;;;;5080138;28;20216;-64
2022/04/07 03:16:06;;;;;;;2.10;0.57;;;7.80;99.90;;;;;;5075729;28;21079;-66
2022/04/07 03:18:33;;;;;;;2.40;0.80;;;7.70;99.90;;;;;;5080673;28;20506;-66
2022/04/07 03:20:59;;;;;;;1.47;0.70;;;7.70;99.90;;;;;;5082199;28;20484;-66
2022/04/07 03:23:24;;;;;;;1.53;0.70;;;7.70;99.90;;;;;;5068664;28;20561;-66
2022/04/07 03:25:50;;;;;;;1.60;0.70;;;7.70;99.90;;;;;;5069053;28;20188;-66
2022/04/07 03:28:16;;;;;;;1.43;0.63;;;7.70;99.90;;;;;;5068624;28;20188;-65
2022/04/07 03:30:41;;;;;;;1.33;0.70;;;7.70;99.90;;;;;;5072994;28;20258;-64
2022/04/07 03:33:07;;;;;;;1.83;0.50;;;7.70;99.90;;;;;;5069264;28;20672;-66
2022/04/07 03:35:34;;;;;;;1.57;0.80;;;7.70;99.90;;;;;;5072198;28;20169;-65
2022/04/07 03:37:59;;;;;;;2.93;0.77;;;7.70;99.90;;;;;;5071128;28;20307;-66
2022/04/07 03:40:27;;;;;;;4.40;0.73;;;7.80;99.90;;;;;;5073282;28;20548;-66
2022/04/07 03:42:53;;;;;;;2.17;0.70;;;7.80;99.90;;;;;;5084771;28;20280;-66
2022/04/07 03:45:19;;;;;;;1.30;0.70;;;7.80;99.90;;;;;;5074612;28;20986;-66
2022/04/07 03:47:45;;;;;;;1.90;0.80;;;7.80;99.90;;;;;;5077244;28;20679;-66
2022/04/07 03:50:11;;;;;;;1.60;0.80;;;7.80;99.90;;;;;;5087649;28;20659;-66
2022/04/07 03:52:36;;;;;;;1.60;0.80;;;7.80;99.90;;;;;;5087734;28;20230;-66
2022/04/07 03:55:04;;;;;;;1.73;0.90;;;7.80;99.90;;;;;;5088113;28;20433;-65
2022/04/07 03:57:29;;;;;;;1.40;0.60;;;7.80;99.90;;;;;;5076980;28;20184;-65
2022/04/07 03:59:55;;;;;;;1.53;0.70;;;7.80;99.90;;;;;;5078190;28;20538;-67
2022/04/07 04:02:21;;;;;;;1.50;0.73;;;7.80;99.90;;;;;;5084306;28;20588;-66
2022/04/07 04:04:46;;;;;;;1.67;0.60;;;7.80;99.90;;;;;;5070085;28;20195;-66
2022/04/07 04:07:12;;;;;;;1.40;0.60;;;7.80;99.90;;;;;;5081279;28;20212;-66
2022/04/07 04:09:37;;;;;;;3.77;0.73;;;7.80;99.90;;;;;;5072991;28;20277;-67
2022/04/07 04:12:04;;;;;;;1.30;0.60;;;7.90;99.90;;;;;;5081519;28;20820;-66
2022/04/07 04:14:29;;;;;;;1.97;0.60;;;7.90;99.90;;;;;;5073916;28;20307;-65
2022/04/07 04:16:55;;;;;;;2.63;0.80;;;7.90;99.90;;;;;;5075791;28;20526;-66
2022/04/07 04:19:21;;;;;;;2.40;0.90;;;7.80;99.90;;;;;;5076028;28;20219;-66
2022/04/07 04:21:47;;;;;;;1.40;0.80;;;7.80;99.90;;;;;;5076126;28;20948;-64
2022/04/07 04:24:12;;;;;;;1.43;0.77;;;7.80;99.90;;;;;;5076320;28;20185;-66
2022/04/07 04:26:38;;;;;;;1.50;0.80;;;7.80;99.90;;;;;;5081658;28;20212;-67
2022/04/07 04:29:04;;;;;;;1.20;0.50;;;7.80;99.90;;;;;;5073139;28;20197;-66
2022/04/07 04:31:30;;;;;;;1.40;0.60;;;7.80;99.90;;;;;;5071750;28;20228;-66
2022/04/07 04:33:55;;;;;;;1.23;0.50;;;7.80;99.90;;;;;;5084798;28;20737;-67
2022/04/07 04:36:21;;;;;;;1.30;0.60;;;7.90;99.90;;;;;;5076961;28;20265;-66
2022/04/07 04:38:47;;;;;;;1.30;0.60;;;7.90;99.90;;;;;;5071963;28;20193;-64
2022/04/07 04:41:13;;;;;;;1.93;0.70;;;7.90;99.90;;;;;;5078119;28;20663;-65
2022/04/07 04:43:39;;;;;;;1.20;0.50;;;7.90;99.90;;;;;;5080512;28;20520;-66
2022/04/07 04:46:05;;;;;;;2.00;0.70;;;8.00;99.90;;;;;;5077601;28;20968;-66
2022/04/07 04:48:31;;;;;;;1.70;0.93;;;8.00;99.90;;;;;;5080357;28;20426;-66
2022/04/07 04:50:56;;;;;;;1.20;0.50;;;8.00;99.90;;;;;;5077210;28;20192;-67
2022/04/07 04:53:22;;;;;;;1.43;0.70;;;8.00;99.90;;;;;;5077058;28;20264;-66
2022/04/07 04:55:49;;;;;;;1.50;0.67;;;8.00;99.90;;;;;;5077443;28;20572;-66
2022/04/07 04:58:15;;;;;;;1.43;0.60;;;8.00;99.90;;;;;;5078533;28;20488;-66
2022/04/07 05:00:41;;;;;;;1.60;0.80;;;8.00;99.90;;;;;;5066087;28;20426;-67
2022/04/07 05:03:06;;;;;;;1.60;0.60;;;8.00;99.90;;;;;;5085060;28;20720;-66
2022/04/07 05:05:32;;;;;;;1.40;0.67;;;8.10;99.90;;;;;;5070921;28;20430;-67
2022/04/07 05:07:58;;;;;;;1.63;0.80;;;8.00;99.90;;;;;;5075606;28;20217;-66
2022/04/07 05:10:27;;;;;;;3.83;0.90;;;8.00;99.90;;;;;;5069387;28;20217;-65
2022/04/07 05:12:53;;;;;;;2.35;0.73;;;7.90;99.90;;;;;;5073828;28;20430;-66
2022/04/07 05:15:19;;;;;;;1.30;0.50;;;7.90;99.90;;;;;;5076884;28;20191;-66
2022/04/07 05:17:54;;;;;;;1.23;0.80;;;7.90;99.90;;;;;;5070722;28;20193;-68
2022/04/07 05:20:21;;;;;;;1.40;0.60;;;7.90;99.90;;;;;;5070414;28;20881;-67
2022/04/07 05:22:47;;;;;;;1.30;0.63;;;8.00;99.90;;;;;;5077954;28;20465;-67
2022/04/07 05:25:13;;;;;;;1.20;0.50;;;8.00;99.90;;;;;;5082630;28;20501;-67
2022/04/07 05:27:40;;;;;;;1.67;0.60;;;8.00;99.90;;;;;;5084601;28;20462;-67
2022/04/07 05:30:07;;;;;;;1.20;0.50;;;8.10;99.90;;;;;;5076919;28;20424;-67
2022/04/07 05:32:34;;;;;;;1.70;0.50;;;8.10;99.90;;;;;;5071951;28;20462;-67
2022/04/07 05:35:00;;;;;;;1.37;0.63;;;8.20;99.90;;;;;;5072067;28;21174;-67
2022/04/07 05:37:26;;;;;;;2.60;0.70;;;8.10;99.90;;;;;;5077207;28;20420;-67
2022/04/07 05:39:51;;;;;;;1.10;0.40;;;8.20;99.90;;;;;;5062383;28;20192;-67
2022/04/07 05:42:18;;;;;;;1.23;0.50;;;8.20;99.90;;;;;;5074545;28;20209;-65
2022/04/07 05:44:44;;;;;;;1.10;0.50;;;8.30;99.90;;;;;;5061297;28;20238;-67
2022/04/07 05:47:09;;;;;;;1.40;0.60;;;8.30;99.90;;;;;;5063205;28;20824;-67
2022/04/07 05:49:35;;;;;;;1.73;0.70;;;8.30;99.90;;;;;;5072409;28;20741;-66
2022/04/07 05:52:03;;;;;;;1.40;0.77;;;8.40;99.90;;;;;;5064743;28;20205;-67
2022/04/07 05:54:29;;;;;;;1.30;0.60;;;8.40;99.90;;;;;;5065859;28;20486;-65
2022/04/07 05:56:54;;;;;;;1.10;0.40;;;8.50;99.90;;;;;;5066327;28;20847;-66
2022/04/07 05:59:20;;;;;;;2.23;0.80;;;8.60;99.90;;;;;;5071627;28;21332;-68
2022/04/07 06:01:46;;;;;;;1.10;0.50;;;8.70;99.90;;;;;;5073647;28;20216;-68
2022/04/07 06:04:11;;;;;;;1.20;0.50;;;8.70;99.90;;;;;;5069420;28;20670;-66
2022/04/07 06:06:37;;;;;;;1.73;0.50;;;8.80;99.90;;;;;;5068397;28;20714;-67
2022/04/07 06:09:03;;;;;;;1.30;0.50;;;8.80;99.90;;;;;;5075476;28;20207;-67
2022/04/07 06:11:29;;;;;;;1.20;0.50;;;8.90;99.90;;;;;;5074566;28;20303;-68
2022/04/07 06:13:55;;;;;;;1.20;0.50;;;8.90;99.90;;;;;;5080143;28;20521;-66
2022/04/07 06:16:21;;;;;;;1.20;0.50;;;8.90;99.90;;;;;;5082539;28;21558;-68
2022/04/07 06:18:46;;;;;;;2.40;0.50;;;9.00;99.90;;;;;;5067207;28;20193;-68
2022/04/07 06:21:12;;;;;;;1.17;0.43;;;9.00;99.90;;;;;;5070894;28;20226;-68
2022/04/07 06:23:39;;;;;;;1.17;0.47;;;9.10;99.90;;;;;;5067263;28;20224;-66
2022/04/07 06:26:04;;;;;;;2.17;0.60;;;9.20;99.90;;;;;;5071557;28;20612;-69
2022/04/07 06:28:30;;;;;;;1.87;0.70;;;9.10;99.90;;;;;;5073157;28;20926;-68
2022/04/07 06:30:56;;;;;;;1.10;0.40;;;9.10;99.90;;;;;;5074424;28;20222;-66
2022/04/07 06:33:22;;;;;;;1.40;0.40;;;9.10;99.90;;;;;;5063442;28;20192;-67
2022/04/07 06:35:51;;;;;;;1.20;0.40;;;9.10;99.90;;;;;;5077243;28;20177;-69
2022/04/07 06:38:17;;;;;;;1.10;0.40;;;9.10;99.90;;;;;;5071074;28;20484;-68
2022/04/07 06:40:43;;;;;;;1.17;0.50;;;9.10;99.90;;;;;;5077969;28;20418;-68
2022/04/07 06:43:08;;;;;;;1.30;0.50;;;9.10;99.90;;;;;;5064239;28;20445;-69
2022/04/07 06:45:34;;;;;;;1.10;0.40;;;9.10;99.90;;;;;;5077307;28;20189;-68
2022/04/07 06:48:00;;;;;;;1.97;0.50;;;9.10;99.90;;;;;;5066348;28;20569;-68
2022/04/07 06:50:26;;;;;;;1.30;0.50;;;9.10;99.90;;;;;;5088097;28;20234;-68
2022/04/07 06:52:52;;;;;;;1.50;0.40;;;9.10;99.90;;;;;;5081822;28;20238;-69
2022/04/07 06:55:18;;;;;;;1.50;0.60;;;9.10;99.90;;;;;;5087144;28;20806;-68
2022/04/07 06:57:54;;;;;;;1.10;0.40;;;9.10;99.90;;;;;;5077018;28;20520;-68
2022/04/07 07:00:22;;;;;;;3.80;1.30;;;9.10;99.90;;;;;;5071099;28;20415;-69
2022/04/07 07:02:52;;;;;;;2.20;0.80;;;9.10;99.90;;;;;;5075528;28;20452;-68
2022/04/07 07:05:18;;;;;;;1.20;0.40;;;9.10;99.90;;;;;;5073035;28;20422;-67
2022/04/07 07:07:44;;;;;;;1.53;0.53;;;9.10;99.90;;;;;;5065672;28;20462;-66
2022/04/07 07:10:11;;;;;;;1.50;0.80;;;9.10;99.90;;;;;;5082523;28;20562;-67
2022/04/07 07:12:37;;;;;;;1.47;0.60;;;9.10;99.90;;;;;;5081639;28;20204;-68
2022/04/07 07:15:03;;;;;;;1.70;0.70;;;9.20;99.90;;;;;;5066925;28;20521;-68
2022/04/07 07:17:33;;;;;;;1.57;0.60;;;9.30;99.90;;;;;;5074252;28;20426;-67
2022/04/07 07:20:12;;;;;;;1.20;0.60;;;9.50;99.90;;;;;;5074680;28;20419;-66
2022/04/07 07:22:38;;;;;;;1.30;0.70;;;9.70;99.90;;;;;;5066948;28;20497;-68
2022/04/07 07:25:05;;;;;;;1.97;0.60;;;9.80;99.90;;;;;;5073703;28;20419;-69
2022/04/07 07:27:44;;;;;;;1.97;0.60;;;9.80;99.90;;;;;;5076628;28;20462;-66
2022/04/07 07:30:11;;;;;;;1.20;0.40;;;9.90;99.90;;;;;;5073665;28;20496;-65
2022/04/07 07:32:41;;;;;;;1.20;0.50;;;9.90;99.90;;;;;;5077915;28;20489;-67
2022/04/07 07:35:09;;;;;;;1.23;0.50;;;10.00;99.90;;;;;;5078424;28;21188;-69
2022/04/07 07:37:36;;;;;;;1.20;0.50;;;10.00;99.90;;;;;;5078031;28;20449;-68
2022/04/07 07:40:06;;;;;;;1.60;0.50;;;10.20;99.90;;;;;;5074748;28;20423;-67
2022/04/07 07:42:32;;;;;;;1.30;0.57;;;10.20;99.90;;;;;;5068227;28;20449;-66
2022/04/07 07:44:57;;;;;;;1.70;0.70;;;10.30;99.90;;;;;;5069116;28;20430;-66
2022/04/07 07:47:23;;;;;;;1.83;0.80;;;10.20;99.90;;;;;;5076830;28;20291;-66
2022/04/07 07:49:48;;;;;;;1.20;0.50;;;10.20;99.90;;;;;;5085302;28;20814;-66
2022/04/07 07:52:14;;;;;;;1.30;0.50;;;10.20;99.90;;;;;;5086237;28;20235;-66
2022/04/07 07:54:40;;;;;;;1.40;0.60;;;10.20;99.90;;;;;;5075833;28;20915;-69
2022/04/07 07:57:05;;;;;;;1.70;0.73;;;10.10;99.90;;;;;;5070749;28;20204;-68
2022/04/07 07:59:31;;;;;;;1.83;0.60;;;10.10;99.90;;;;;;5086204;28;20188;-68
2022/04/07 08:01:57;;;;;;;1.70;0.70;;;10.10;99.90;;;;;;5079206;28;20580;-67
2022/04/07 08:04:22;;;;;;;1.20;0.40;;;10.10;99.90;;;;;;5068193;28;20200;-68
2022/04/07 08:06:48;;;;;;;1.30;0.50;;;10.10;99.90;;;;;;5071118;28;20329;-68
2022/04/07 08:09:14;;;;;;;1.40;0.50;;;10.10;99.90;;;;;;5073176;28;20196;-69
2022/04/07 08:11:43;;;;;;;1.73;0.60;;;10.20;99.90;;;;;;5078335;28;20200;-69
2022/04/07 08:14:08;;;;;;;1.60;0.50;;;10.40;99.90;;;;;;5078658;28;20180;-68
2022/04/07 08:16:35;;;;;;;1.70;0.50;;;10.70;99.70;;;;;;5074128;28;20445;-69
2022/04/07 08:19:01;;;;;;;1.20;0.50;;;10.90;99.40;;;;;;5069445;28;20200;-68
2022/04/07 08:21:26;;;;;;;1.20;0.50;;;11.20;98.70;;;;;;5075498;28;20848;-68
2022/04/07 08:23:53;;;;;;;1.40;0.50;;;11.30;98.80;;;;;;5069990;28;20200;-66
2022/04/07 08:26:19;;;;;;;5.77;0.80;;;11.30;98.90;;;;;;5076814;28;20909;-66
2022/04/07 08:28:45;;;;;;;1.80;0.57;;;11.30;98.30;;;;;;5075072;28;20801;-66
2022/04/07 08:31:11;;;;;;;1.37;0.53;;;11.20;98.20;;;;;;5079663;28;20419;-69
2022/04/07 08:33:37;;;;;;;2.47;0.50;;;11.10;98.50;;;;;;5073380;28;20213;-69
2022/04/07 08:36:02;;;;;;;1.30;0.50;;;11.00;98.70;;;;;;5064598;28;20181;-68
2022/04/07 08:38:28;;;;;;;5.83;0.50;;;11.00;99.10;;;;;;5065450;28;20281;-67
2022/04/07 08:40:55;;;;;;;2.50;0.83;;;11.10;98.70;;;;;;5066989;28;20196;-69
2022/04/07 08:43:22;;;;;;;1.20;0.50;;;11.30;98.40;;;;;;5066566;28;20670;-67
2022/04/07 08:45:48;;;;;;;1.37;0.50;;;11.50;98.20;;;;;;5072508;28;20423;-68
2022/04/07 08:48:15;;;;;;;7.73;1.07;;;11.90;97.40;;;;;;5073878;28;20463;-66
2022/04/07 08:50:45;;;;;;;1.20;0.50;;;12.00;97.50;;;;;;5082174;28;20485;-67
2022/04/07 08:53:12;;;;;;;2.27;0.40;;;12.30;96.50;;;;;;5067674;28;20828;-69
2022/04/07 08:55:38;;;;;;;1.97;0.50;;;12.50;95.70;;;;;;5073808;28;20420;-68
2022/04/07 08:58:05;;;;;;;1.20;0.40;;;12.60;95.80;;;;;;5085379;28;20558;-65
2022/04/07 09:00:31;;;;;;;1.33;0.60;;;12.70;95.70;;;;;;5074098;28;20239;-69
2022/04/07 09:02:58;;;;;;;2.80;0.50;;;12.40;95.50;;;;;;5070885;28;20474;-67
2022/04/07 09:05:25;;;;;;;1.20;0.40;;;11.90;95.90;;;;;;5073159;28;20519;-69
2022/04/07 09:07:55;;;;;;;1.30;0.50;;;11.70;96.50;;;;;;5068185;28;20466;-68
2022/04/07 09:10:23;;;;;;;1.47;0.57;;;11.50;96.70;;;;;;5075864;28;20434;-67
2022/04/07 09:12:52;;;;;;;1.20;0.60;;;11.40;96.50;;;;;;5075220;28;20986;-68
2022/04/07 09:15:18;;;;;;;1.30;0.50;;;11.30;97.00;;;;;;5073186;28;20423;-68
2022/04/07 09:17:53;;;;;;;1.70;0.80;;;11.40;97.10;;;;;;5073478;28;20424;-67
2022/04/07 09:20:19;;;;;;;1.50;0.60;;;11.30;96.60;;;;;;5073654;28;20437;-67
2022/04/07 09:22:53;;;;;;;2.20;0.77;;;11.20;96.50;;;;;;5073450;28;20747;-70
2022/04/07 09:25:19;;;;;;;1.83;0.60;;;11.20;97.00;;;;;;5074718;28;20505;-68
2022/04/07 09:27:48;;;;;;;2.33;0.77;;;11.10;97.00;;;;;;5078328;28;20461;-69
2022/04/07 09:30:14;;;;;;;3.00;0.67;;;11.00;97.30;;;;;;5073060;28;20181;-69
2022/04/07 09:32:44;;;;;;;1.60;0.70;;;11.10;97.00;;;;;;5079603;28;20443;-68
2022/04/07 09:35:11;;;;;;;1.50;0.60;;;11.00;97.70;;;;;;5077198;28;20285;-68
2022/04/07 09:37:41;;;;;;;2.07;0.67;;;10.90;97.60;;;;;;5075236;28;21061;-68
2022/04/07 09:40:16;;;;;;;1.63;0.60;;;10.90;97.70;;;;;;5073582;28;20451;-68
2022/04/07 09:42:42;;;;;;;1.50;0.50;;;10.90;98.20;;;;;;5065708;28;20450;-66
2022/04/07 09:45:12;;;;;;;1.30;0.60;;;11.00;98.10;;;;;;5076295;28;20418;-66
2022/04/07 09:47:43;;;;;;;6.70;0.70;;;11.10;97.70;;;;;;5073889;28;20481;-66
2022/04/07 09:50:22;;;;;;;1.20;0.50;;;11.20;97.70;;;;;;5067763;28;20427;-67
2022/04/07 09:53:15;;;;;;;5.00;1.33;;;11.30;99.30;;;;;;5071466;28;20434;-67
2022/04/07 09:55:41;;;;;;;1.30;0.50;;;11.20;98.90;;;;;;5066811;28;20434;-66
2022/04/07 09:58:08;;;;;;;1.30;0.50;;;11.20;99.60;;;;;;5077303;28;20631;-66
2022/04/07 10:00:35;;;;;;;5.23;0.63;;;11.30;98.90;;;;;;5070733;28;20425;-66
2022/04/07 10:03:04;;;;;;;1.80;0.60;;;11.30;98.30;;;;;;5074374;28;20884;-67
2022/04/07 10:05:31;;;;;;;3.77;0.53;;;11.30;98.40;;;;;;5080985;28;20995;-67
2022/04/07 10:07:57;;;;;;;3.50;0.83;;;11.20;98.50;;;;;;5074879;28;20869;-67
2022/04/07 10:10:24;;;;;;;1.20;0.50;;;11.30;98.40;;;;;;5073830;28;20510;-67
2022/04/07 10:12:50;;;;;;;4.80;0.80;;;11.40;97.90;;;;;;5073729;28;20539;-68
2022/04/07 10:15:17;;;;;;;1.50;0.70;;;11.40;98.20;;;;;;5074446;28;20422;-68
2022/04/07 10:17:44;;;;;;;1.20;0.50;;;11.60;97.80;;;;;;5070191;28;20422;-69
2022/04/07 10:20:12;;;;;;;1.73;0.60;;;11.60;97.50;;;;;;5074964;28;20486;-66
2022/04/07 10:22:52;;;;;;;1.20;0.50;;;11.60;97.50;;;;;;5072632;28;20462;-69
2022/04/07 10:25:18;;;;;;;1.60;0.50;;;11.60;97.50;;;;;;5074938;28;20474;-68
2022/04/07 10:27:49;;;;;;;2.47;0.53;;;11.60;97.70;;;;;;5083838;28;20446;-68
2022/04/07 10:30:16;;;;;;;1.90;0.70;;;11.60;97.60;;;;;;5078816;28;20504;-68
2022/04/07 10:32:46;;;;;;;1.20;0.50;;;11.50;97.40;;;;;;5071106;28;20516;-66
2022/04/07 10:35:30;;;;;;;1.20;0.60;;;11.50;97.60;;;;;;5074843;28;20514;-68
2022/04/07 10:38:06;;;;;;;1.50;0.60;;;11.40;97.80;;;;;;5073358;28;20476;-66
2022/04/07 10:40:35;;;;;;;1.20;0.40;;;11.40;98.00;;;;;;5081518;28;20444;-66
2022/04/07 10:43:07;;;;;;;1.30;0.60;;;11.60;97.80;;;;;;5062373;28;20435;-65
2022/04/07 10:45:40;;;;;;;1.30;0.50;;;11.60;97.90;;;;;;5064064;28;20435;-67
2022/04/07 10:48:29;;;;;;;1.40;0.50;;;11.60;97.70;;;;;;5072266;28;20470;-66
2022/04/07 10:50:56;;;;;;;1.20;0.50;;;11.60;97.50;;;;;;5058345;28;21023;-66
2022/04/07 10:53:36;;;;;;;1.20;0.50;;;11.80;97.40;;;;;;5068433;28;20423;-66
2022/04/07 10:56:05;;;;;;;1.20;0.50;;;11.90;97.10;;;;;;5062256;28;20427;-66
2022/04/07 10:58:41;;;;;;;1.20;0.50;;;11.80;97.20;;;;;;5073434;28;20441;-66
2022/04/07 11:01:16;;;;;;;1.20;0.40;;;12.00;97.20;;;;;;5067175;28;20407;-68
2022/04/07 11:04:01;;;;;;;1.20;0.50;;;12.00;97.10;;;;;;5078459;28;20406;-66
2022/04/07 11:06:26;;;;;;;1.20;0.40;;;12.00;97.30;;;;;;5074981;28;20562;-66
2022/04/07 11:09:11;;;;;;;1.20;0.40;;;12.20;96.80;;;;;;5071168;28;20882;-65
2022/04/07 11:11:52;;;;;;;1.20;0.50;;;12.20;96.20;;;;;;5072647;28;20613;-66
2022/04/07 11:14:26;;;;;;;1.30;0.50;;;12.30;96.70;;;;;;5070848;28;20439;-66
2022/04/07 11:16:56;;;;;;;1.33;0.50;;;12.30;96.40;;;;;;5072667;28;20944;-69
2022/04/07 11:19:45;;;;;;;1.40;0.40;;;12.30;96.30;;;;;;5073600;28;20446;-66
2022/04/07 11:22:12;;;;;;;1.20;0.40;;;12.40;96.30;;;;;;5071057;28;20542;-65
2022/04/07 11:24:44;;;;;;;1.40;0.50;;;12.50;95.90;;;;;;5075810;28;20418;-66
2022/04/07 11:27:35;;;;;;;1.23;0.47;;;12.50;95.70;;;;;;5079312;28;21089;-66
2022/04/07 11:30:06;;;;;;;1.17;0.40;;;12.40;96.00;;;;;;5075873;28;20496;-67
2022/04/07 11:32:32;;;;;;;2.07;0.50;;;12.70;96.00;;;;;;5087443;28;20450;-66
2022/04/07 11:35:13;;;;;;;1.20;0.40;;;12.80;95.70;;;;;;5085517;28;20414;-66
2022/04/07 11:37:40;;;;;;;7.67;0.53;;;12.70;95.90;;;;;;5068248;28;20177;-67
2022/04/07 11:40:07;;;;;;;1.20;0.40;;;12.60;96.30;;;;;;5068252;28;21643;-66
2022/04/07 11:42:33;;;;;;;1.20;0.40;;;12.50;96.80;;;;;;5073511;28;20450;-67
2022/04/07 11:45:00;;;;;;;1.30;0.60;;;12.40;96.90;;;;;;5072356;28;20476;-67
2022/04/07 11:47:31;;;;;;;1.17;0.40;;;12.20;96.70;;;;;;5069590;28;20217;-67
2022/04/07 11:49:57;;;;;;;1.20;0.40;;;12.10;97.00;;;;;;5074142;28;20530;-66
2022/04/07 11:52:28;;;;;;;1.20;0.50;;;12.00;97.10;;;;;;5082769;28;20442;-68
2022/04/07 11:54:58;;;;;;;1.30;0.50;;;12.00;97.50;;;;;;5080862;28;20485;-67
2022/04/07 11:57:26;;;;;;;1.20;0.40;;;11.90;97.30;;;;;;5074672;28;20199;-67
2022/04/07 11:59:57;;;;;;;1.30;0.50;;;11.90;97.50;;;;;;5074865;28;20415;-67
2022/04/07 12:02:23;;;;;;;1.40;0.50;;;12.00;97.50;;;;;;5077007;28;20450;-67
2022/04/07 12:05:01;;;;;;;1.20;0.40;;;12.00;97.60;;;;;;5076904;28;20412;-67
2022/04/07 12:07:27;;;;;;;1.93;0.70;;;11.80;97.90;;;;;;5075273;28;20571;-66
2022/04/07 12:10:07;;;;;;;1.20;0.40;;;11.70;98.40;;;;;;5074805;28;20431;-67
2022/04/07 12:12:34;;;;;;;1.17;0.40;;;11.60;98.60;;;;;;5076122;28;20979;-67
2022/04/07 12:15:00;;;;;;;1.20;0.50;;;11.40;98.90;;;;;;5077638;28;20588;-67
2022/04/07 12:17:26;;;;;;;1.30;0.50;;;11.40;99.10;;;;;;5075906;28;20430;-67
2022/04/07 12:19:51;;;;;;;1.20;0.50;;;11.30;99.20;;;;;;5075266;28;20422;-67
2022/04/07 12:22:18;;;;;;;1.17;0.40;;;11.30;99.30;;;;;;5076262;28;20256;-65
2022/04/07 12:25:06;;;;;;;2.73;0.50;;;11.20;99.40;;;;;;5079390;28;20223;-67
2022/04/07 12:27:34;;;;;;;1.20;0.50;;;11.20;99.40;;;;;;5085866;28;21017;-67
2022/04/07 12:30:01;;;;;;;1.33;0.57;;;11.30;99.50;;;;;;5060030;28;20419;-67
2022/04/07 12:32:44;;;;;;;1.73;0.53;;;11.20;99.50;;;;;;5078301;28;20435;-66
2022/04/07 12:35:10;;;;;;;1.20;0.50;;;11.30;99.20;;;;;;5070430;28;20502;-66
2022/04/07 12:37:43;;;;;;;1.20;0.50;;;11.20;99.30;;;;;;5078464;28;20438;-66
2022/04/07 12:40:15;;;;;;;1.30;0.50;;;11.30;99.30;;;;;;5078389;28;20449;-66
2022/04/07 12:42:55;;;;;;;45.10;0.87;;;11.40;99.30;;;;;;5073193;28;20445;-67
2022/04/07 12:45:21;;;;;;;1.17;0.40;;;11.30;99.00;;;;;;5074875;28;20442;-67
2022/04/07 12:48:06;;;;;;;1.60;0.70;;;11.20;99.50;;;;;;5079779;28;20488;-67
2022/04/07 12:50:34;;;;;;;1.20;0.40;;;11.20;99.90;;;;;;5077567;28;20418;-68
2022/04/07 12:53:00;;;;;;;1.30;0.50;;;11.30;99.90;;;;;;5075675;28;20475;-67
2022/04/07 12:55:39;;;;;;;2.17;0.73;;;11.30;99.90;;;;;;5074711;28;20458;-66